createdAt,value
2022-11-08T00:00:05.618Z,95788.44
2022-11-08T00:02:33.732Z,95785.56
2022-11-08T00:05:18.935Z,95790.00
2022-11-08T00:11:56.242Z,95787.97
2022-11-08T00:14:24.140Z,95778.88
2022-11-08T00:16:52.024Z,95785.25
2022-11-08T00:19:19.918Z,95781.44
2022-11-08T00:21:47.793Z,95783.03
2022-11-08T00:24:15.616Z,95703.75
2022-11-08T00:26:44.844Z,95770.50
2022-11-08T00:29:12.733Z,95772.69
2022-11-08T00:31:40.623Z,95777.78
2022-11-08T00:34:08.494Z,95776.06
2022-11-08T00:36:36.608Z,95772.06
2022-11-08T00:39:04.638Z,95777.78
2022-11-08T00:41:32.474Z,95773.53
2022-11-08T00:44:01.705Z,95778.78
2022-11-08T00:46:29.553Z,95778.31
2022-11-08T00:48:57.403Z,95774.34
2022-11-08T00:51:25.311Z,95757.72
2022-11-08T00:53:53.152Z,95739.03
2022-11-08T00:56:21.003Z,95738.09
2022-11-08T00:58:48.911Z,95777.03
2022-11-08T01:01:20.570Z,95778.03
2022-11-08T01:03:49.919Z,95781.66
2022-11-08T01:06:19.726Z,95775.31
2022-11-08T01:08:47.984Z,95720.69
2022-11-08T01:11:18.477Z,95778.53
2022-11-08T01:13:46.597Z,95774.72
2022-11-08T01:16:16.641Z,95770.78
2022-11-08T01:18:46.971Z,95775.66
2022-11-08T01:21:15.563Z,95770.13
2022-11-08T01:23:45.368Z,95765.38
2022-11-08T01:26:15.616Z,95730.38
2022-11-08T01:28:43.814Z,95763.59
2022-11-08T01:31:13.610Z,95772.66
2022-11-08T01:33:42.951Z,95763.13
2022-11-08T01:36:17.119Z,95752.00
2022-11-08T01:38:45.240Z,95762.00
2022-11-08T01:41:14.770Z,95750.31
2022-11-08T01:43:45.621Z,95776.13
2022-11-08T01:46:38.862Z,95761.03
2022-11-08T01:49:44.348Z,95762.97
2022-11-08T01:52:20.803Z,95768.03
2022-11-08T01:54:57.086Z,95762.66
2022-11-08T01:57:32.097Z,95720.50
2022-11-08T02:00:05.377Z,95765.50
2022-11-08T02:02:34.747Z,95766.13
2022-11-08T02:05:04.041Z,95770.13
2022-11-08T02:07:34.867Z,95766.50
2022-11-08T02:10:03.991Z,95775.69
2022-11-08T02:12:31.879Z,95777.94
2022-11-08T02:15:00.480Z,95771.91
2022-11-08T02:17:28.342Z,95768.41
2022-11-08T02:19:56.182Z,95779.81
2022-11-08T02:22:33.651Z,95773.78
2022-11-08T02:25:03.757Z,95771.41
2022-11-08T02:27:31.663Z,95769.97
2022-11-08T02:29:59.546Z,95768.03
2022-11-08T02:32:27.396Z,95769.75
2022-11-08T02:34:58.557Z,95769.41
2022-11-08T02:37:28.253Z,95775.66
2022-11-08T02:39:56.090Z,95760.75
2022-11-08T02:42:25.428Z,95779.00
2022-11-08T02:44:53.314Z,95768.53
2022-11-08T02:47:21.204Z,95763.78
2022-11-08T02:49:49.054Z,95771.69
2022-11-08T02:52:17.201Z,95763.88
2022-11-08T02:54:45.054Z,95770.03
2022-11-08T02:57:12.964Z,95765.56
2022-11-08T02:59:42.175Z,95772.56
2022-11-08T03:02:10.201Z,95722.19
2022-11-08T03:04:38.136Z,95765.22
2022-11-08T03:07:05.983Z,95762.84
2022-11-08T03:09:33.843Z,95748.59
2022-11-08T03:12:01.769Z,95775.38
2022-11-08T03:14:29.612Z,95776.03
2022-11-08T03:16:58.901Z,95778.09
2022-11-08T03:19:26.779Z,95778.59
2022-11-08T03:21:54.622Z,95746.13
2022-11-08T03:24:22.483Z,95777.69
2022-11-08T03:26:50.354Z,95781.19
2022-11-08T03:29:18.200Z,95782.16
2022-11-08T03:31:46.027Z,95780.06
2022-11-08T03:34:15.374Z,95784.47
2022-11-08T03:36:43.235Z,95784.47
2022-11-08T03:39:11.568Z,95780.78
2022-11-08T03:41:39.839Z,95785.44
2022-11-08T03:44:07.750Z,95787.13
2022-11-08T03:46:35.608Z,95793.38
2022-11-08T03:49:03.443Z,95793.72
2022-11-08T03:51:32.684Z,95794.50
2022-11-08T03:54:00.539Z,95794.66
2022-11-08T03:56:28.403Z,95799.09
2022-11-08T03:58:56.243Z,95790.38
2022-11-08T04:01:24.314Z,95801.31
2022-11-08T04:03:52.288Z,95799.56
2022-11-08T04:06:20.173Z,95803.88
2022-11-08T04:08:49.419Z,95801.81
2022-11-08T04:11:34.786Z,95798.47
2022-11-08T04:14:20.066Z,95790.88
2022-11-08T04:16:47.991Z,95788.31
2022-11-08T04:19:33.171Z,95792.63
2022-11-08T04:22:01.049Z,95790.69
2022-11-08T04:24:30.275Z,95789.72
2022-11-08T04:26:58.164Z,95787.53
2022-11-08T04:29:26.063Z,95792.59
2022-11-08T04:31:53.903Z,95787.22
2022-11-08T04:34:21.916Z,95791.97
2022-11-08T04:36:50.553Z,95794.97
2022-11-08T04:39:19.088Z,95790.53
2022-11-08T04:41:48.541Z,95792.59
2022-11-08T04:44:18.403Z,95791.97
2022-11-08T04:46:46.300Z,95792.28
2022-11-08T04:49:14.135Z,95790.22
2022-11-08T04:51:41.990Z,95798.31
2022-11-08T04:54:11.843Z,95803.06
2022-11-08T04:56:41.672Z,95809.25
2022-11-08T04:59:12.207Z,95810.38
2022-11-08T05:01:40.814Z,95811.47
2022-11-08T05:04:08.847Z,95808.16
2022-11-08T05:06:36.688Z,95813.53
2022-11-08T05:09:04.730Z,95806.72
2022-11-08T05:11:32.608Z,95814.19
2022-11-08T05:14:00.438Z,95811.47
2022-11-08T05:16:31.914Z,95813.84
2022-11-08T05:19:00.482Z,95815.13
2022-11-08T05:21:45.791Z,95812.88
2022-11-08T05:24:16.291Z,95811.00
2022-11-08T05:26:45.937Z,95816.53
2022-11-08T05:29:15.412Z,95821.47
2022-11-08T05:31:44.707Z,95817.50
2022-11-08T05:34:12.647Z,95818.59
2022-11-08T05:36:40.487Z,95810.34
2022-11-08T05:39:08.327Z,95808.13
2022-11-08T05:41:36.249Z,95819.09
2022-11-08T05:44:04.116Z,95818.00
2022-11-08T05:46:32.031Z,95812.25
2022-11-08T05:49:01.530Z,95818.94
2022-11-08T05:51:29.633Z,95821.63
2022-11-08T05:53:57.488Z,95826.41
2022-11-08T05:56:25.359Z,95835.91
2022-11-08T05:58:53.209Z,95829.25
2022-11-08T06:01:21.823Z,95831.78
2022-11-08T06:03:49.801Z,95834.78
2022-11-08T06:06:20.725Z,95843.34
2022-11-08T06:08:50.588Z,95842.22
2022-11-08T06:11:21.704Z,95845.59
2022-11-08T06:13:49.660Z,95853.50
2022-11-08T06:16:19.248Z,95850.81
2022-11-08T06:18:47.206Z,95852.09
2022-11-08T06:21:16.503Z,95857.16
2022-11-08T06:23:46.135Z,95866.69
2022-11-08T06:26:14.593Z,95856.69
2022-11-08T06:28:42.686Z,95862.41
2022-11-08T06:31:10.639Z,95866.03
2022-11-08T06:33:38.526Z,95867.66
2022-11-08T06:36:08.411Z,95877.78
2022-11-08T06:38:36.563Z,95870.63
2022-11-08T06:41:05.890Z,95887.94
2022-11-08T06:43:34.148Z,95881.91
2022-11-08T06:46:02.661Z,95881.75
2022-11-08T06:48:35.336Z,95877.78
2022-11-08T06:51:04.086Z,95883.97
2022-11-08T06:53:32.147Z,95883.00
2022-11-08T06:56:00.272Z,95886.03
2022-11-08T06:58:29.591Z,95878.72
2022-11-08T07:00:57.592Z,95889.97
2022-11-08T07:03:25.555Z,95878.84
2022-11-08T07:05:53.400Z,95886.31
2022-11-08T07:08:24.077Z,95880.94
2022-11-08T07:10:52.899Z,95879.00
2022-11-08T07:13:21.439Z,95882.81
2022-11-08T07:15:51.133Z,95884.09
2022-11-08T07:18:20.627Z,95893.16
2022-11-08T07:20:48.565Z,95884.22
2022-11-08T07:23:16.784Z,95889.16
2022-11-08T07:25:44.785Z,95885.66
2022-11-08T07:28:17.040Z,95882.28
2022-11-08T07:30:45.574Z,95893.59
2022-11-08T07:33:16.732Z,95892.16
2022-11-08T07:35:46.468Z,95892.63
2022-11-08T07:38:14.594Z,95883.56
2022-11-08T07:40:42.547Z,95891.81
2022-11-08T07:43:12.261Z,95894.19
2022-11-08T07:45:41.556Z,95900.56
2022-11-08T07:48:12.824Z,95897.84
2022-11-08T07:50:43.217Z,95893.09
2022-11-08T07:53:11.933Z,95898.78
2022-11-08T07:55:40.299Z,95892.47
2022-11-08T07:58:09.319Z,95885.66
2022-11-08T08:00:38.682Z,95895.66
2022-11-08T08:03:09.578Z,95890.56
2022-11-08T08:05:39.096Z,95890.25
2022-11-08T08:08:08.935Z,95889.47
2022-11-08T08:10:37.284Z,95891.84
2022-11-08T08:13:06.209Z,95890.09
2022-11-08T08:15:34.131Z,95884.19
2022-11-08T08:18:03.231Z,95892.59
2022-11-08T08:20:31.592Z,95886.44
2022-11-08T08:23:00.525Z,95888.50
2022-11-08T08:25:31.533Z,95891.81
2022-11-08T08:28:01.825Z,95900.88
2022-11-08T08:30:31.560Z,95891.81
2022-11-08T08:33:34.293Z,95891.50
2022-11-08T08:35:53.644Z,95897.34
2022-11-08T08:38:21.759Z,95889.06
2022-11-08T08:40:51.596Z,95890.34
2022-11-08T08:43:20.306Z,95901.03
2022-11-08T08:45:49.000Z,95897.69
2022-11-08T08:48:16.953Z,95900.22
2022-11-08T08:50:44.810Z,95911.66
2022-11-08T08:53:12.666Z,95910.34
2022-11-08T08:55:41.796Z,95904.94
2022-11-08T08:58:12.085Z,95909.59
2022-11-08T09:03:28.011Z,95909.19
2022-11-08T09:05:58.274Z,95908.34
2022-11-08T09:08:26.154Z,95905.34
2022-11-08T09:10:55.452Z,95902.66
2022-11-08T09:13:26.233Z,95900.75
2022-11-08T09:15:54.451Z,95897.81
2022-11-08T09:18:22.551Z,95893.75
2022-11-08T09:20:50.567Z,95897.72
2022-11-08T09:23:19.079Z,95896.69
2022-11-08T09:25:47.114Z,95901.31
2022-11-08T09:28:14.969Z,95894.19
2022-11-08T09:30:44.230Z,95885.97
2022-11-08T09:33:12.147Z,95891.84
2022-11-08T09:35:40.028Z,95890.78
2022-11-08T09:38:08.545Z,95892.63
2022-11-08T09:40:41.189Z,95891.03
2022-11-08T09:43:28.460Z,95887.06
2022-11-08T09:45:58.030Z,95887.34
2022-11-08T09:48:30.895Z,95885.78
2022-11-08T09:51:05.116Z,95874.06
2022-11-08T09:53:39.898Z,95880.06
2022-11-08T09:56:14.890Z,95881.91
2022-11-08T09:58:48.690Z,95884.44
2022-11-08T10:01:18.529Z,95879.22
2022-11-08T10:03:50.590Z,95875.75
2022-11-08T10:06:31.342Z,95873.16
2022-11-08T10:09:07.276Z,95865.22
2022-11-08T10:11:47.226Z,95861.72
2022-11-08T10:14:46.742Z,95861.25
2022-11-08T10:17:35.495Z,95861.56
2022-11-08T10:20:11.364Z,95863.44
2022-11-08T10:22:50.831Z,95850.97
2022-11-08T10:25:21.891Z,95855.84
2022-11-08T10:27:52.445Z,95851.41
2022-11-08T10:30:22.955Z,95845.13
2022-11-08T10:32:55.340Z,95831.91
2022-11-08T10:35:28.926Z,95839.00
2022-11-08T10:38:00.192Z,95835.56
2022-11-08T10:40:38.942Z,95832.25
2022-11-08T10:43:11.846Z,95826.13
2022-11-08T10:45:39.734Z,95824.03
2022-11-08T10:48:12.187Z,95821.44
2022-11-08T10:50:45.365Z,95832.75
2022-11-08T10:53:20.626Z,95834.72
2022-11-08T10:55:51.826Z,95825.78
2022-11-08T10:58:37.367Z,95815.72
2022-11-08T11:01:08.735Z,95739.16
2022-11-08T11:03:37.947Z,95791.84
2022-11-08T11:06:07.702Z,95798.81
2022-11-08T11:08:35.728Z,95810.28
2022-11-08T11:11:25.424Z,95804.59
2022-11-08T11:14:16.419Z,95801.31
2022-11-08T11:16:56.407Z,95810.16
2022-11-08T11:19:27.254Z,95813.69
2022-11-08T11:21:58.633Z,95809.75
2022-11-08T11:24:26.781Z,95791.91
2022-11-08T11:27:07.117Z,95785.94
2022-11-08T11:29:36.671Z,95765.97
2022-11-08T11:32:25.924Z,95777.00
2022-11-08T11:34:57.449Z,95780.53
2022-11-08T11:37:40.507Z,95776.31
2022-11-08T11:40:18.542Z,95780.34
2022-11-08T11:42:57.885Z,95780.69
2022-11-08T11:45:32.004Z,95764.84
2022-11-08T11:48:03.659Z,95768.78
2022-11-08T11:50:36.237Z,95765.19
2022-11-08T11:53:07.392Z,95773.56
2022-11-08T11:55:48.908Z,95752.16
2022-11-08T11:58:33.232Z,95708.78
2022-11-08T12:01:14.043Z,95760.81
2022-11-08T12:04:01.766Z,95767.06
2022-11-08T12:06:44.042Z,95759.22
2022-11-08T12:09:22.115Z,95755.47
2022-11-08T12:12:04.830Z,95768.25
2022-11-08T12:14:48.670Z,95761.16
2022-11-08T12:17:47.081Z,95749.88
2022-11-08T12:20:27.766Z,95755.31
2022-11-08T12:23:12.454Z,95748.31
2022-11-08T12:25:50.136Z,95755.56
2022-11-08T12:28:42.089Z,95748.56
2022-11-08T12:31:22.544Z,95746.81
2022-11-08T12:34:00.833Z,95743.41
2022-11-08T12:36:36.701Z,95741.78
2022-11-08T12:39:22.142Z,95746.56
2022-11-08T12:41:59.590Z,95740.63
2022-11-08T12:45:00.126Z,95750.13
2022-11-08T12:47:36.799Z,95739.25
2022-11-08T12:50:18.936Z,95746.06
2022-11-08T12:53:05.691Z,95751.59
2022-11-08T12:55:37.606Z,95729.84
2022-11-08T12:58:31.597Z,95735.16
2022-11-08T13:01:06.692Z,95736.56
2022-11-08T13:04:04.708Z,95730.84
2022-11-08T13:06:42.053Z,95730.88
2022-11-08T13:09:21.470Z,95728.06
2022-11-08T13:12:01.298Z,95703.16
2022-11-08T13:14:29.928Z,95736.53
2022-11-08T13:17:23.052Z,95733.13
2022-11-08T13:20:04.689Z,95730.97
2022-11-08T13:23:01.416Z,95731.13
2022-11-08T13:25:37.587Z,95738.91
2022-11-08T13:28:41.977Z,95727.22
2022-11-08T13:31:28.704Z,95727.63
2022-11-08T13:34:12.385Z,95718.34
2022-11-08T13:36:51.513Z,95710.34
2022-11-08T13:39:33.232Z,95733.78
2022-11-08T13:42:04.566Z,95747.63
2022-11-08T13:45:14.272Z,95745.78
2022-11-08T13:47:54.397Z,95745.66
2022-11-08T13:50:47.903Z,95750.84
2022-11-08T13:53:45.746Z,95751.78
2022-11-08T13:56:27.239Z,95750.34
2022-11-08T13:58:55.142Z,95729.31
2022-11-08T14:01:52.744Z,95743.72
2022-11-08T14:04:31.262Z,95750.66
2022-11-08T14:07:06.222Z,95745.88
2022-11-08T14:09:44.851Z,95746.28
2022-11-08T14:12:17.116Z,95742.00
2022-11-08T14:14:52.340Z,95738.94
2022-11-08T14:17:38.375Z,95745.88
2022-11-08T14:20:34.985Z,95739.25
2022-11-08T14:23:15.919Z,95742.69
2022-11-08T14:25:48.547Z,95744.28
2022-11-08T14:28:24.398Z,95741.41
2022-11-08T14:30:52.592Z,95751.88
2022-11-08T14:33:22.795Z,95736.78
2022-11-08T14:35:59.786Z,95716.41
2022-11-08T14:38:28.767Z,95750.97
2022-11-08T14:41:00.032Z,95750.09
2022-11-08T14:43:28.729Z,95746.50
2022-11-08T14:45:58.174Z,95747.19
2022-11-08T14:48:29.654Z,95743.72
2022-11-08T14:51:06.696Z,95749.44
2022-11-08T14:53:45.359Z,95747.13
2022-11-08T14:56:18.566Z,95753.97
2022-11-08T14:58:47.633Z,95727.56
2022-11-08T15:01:17.840Z,95746.44
2022-11-08T15:03:49.073Z,95748.34
2022-11-08T15:06:18.413Z,95750.28
2022-11-08T15:08:52.388Z,95746.31
2022-11-08T15:11:31.851Z,95743.34
2022-11-08T15:14:03.241Z,95750.88
2022-11-08T15:16:41.208Z,95753.84
2022-11-08T15:19:21.679Z,95753.75
2022-11-08T15:21:53.301Z,95746.56
2022-11-08T15:24:30.437Z,95756.69
2022-11-08T15:27:06.037Z,95751.50
2022-11-08T15:29:49.709Z,95751.75
2022-11-08T15:32:19.355Z,95755.50
2022-11-08T15:34:48.331Z,95754.63
2022-11-08T15:37:30.019Z,95758.25
2022-11-08T15:40:02.668Z,95759.66
2022-11-08T15:42:31.219Z,95756.81
2022-11-08T15:45:01.042Z,95763.19
2022-11-08T15:47:46.052Z,95740.28
2022-11-08T15:50:17.293Z,95751.78
2022-11-08T15:52:48.935Z,95763.66
2022-11-08T15:55:19.211Z,95756.53
2022-11-08T15:57:49.170Z,95714.22
2022-11-08T16:00:19.364Z,95767.63
2022-11-08T16:02:47.422Z,95768.06
2022-11-08T16:05:17.395Z,95769.09
2022-11-08T16:07:47.144Z,95775.97
2022-11-08T16:10:17.521Z,95743.00
2022-11-08T16:12:47.833Z,95773.50
2022-11-08T16:15:18.788Z,95783.00
2022-11-08T16:17:46.866Z,95783.56
2022-11-08T16:20:21.278Z,95779.81
2022-11-08T16:22:50.523Z,95780.13
2022-11-08T16:25:18.666Z,95780.03
2022-11-08T16:27:51.767Z,95773.94
2022-11-08T16:30:19.979Z,95776.16
2022-11-08T16:32:47.857Z,95787.25
2022-11-08T16:35:16.378Z,95763.44
2022-11-08T16:37:45.131Z,95795.13
2022-11-08T16:40:22.868Z,95795.66
2022-11-08T16:42:52.790Z,95779.13
2022-11-08T16:45:43.474Z,95797.13
2022-11-08T16:48:16.360Z,95799.91
2022-11-08T16:50:44.687Z,95792.31
2022-11-08T16:53:16.675Z,95807.63
2022-11-08T16:55:46.304Z,95808.84
2022-11-08T16:58:14.726Z,95803.50
2022-11-08T17:00:44.119Z,95806.56
2022-11-08T17:03:17.781Z,95811.16
2022-11-08T17:05:45.655Z,95816.69
2022-11-08T17:08:13.698Z,95807.59
2022-11-08T17:10:41.866Z,95818.84
2022-11-08T17:13:14.392Z,95816.66
2022-11-08T17:15:42.274Z,95822.84
2022-11-08T17:18:12.835Z,95825.09
2022-11-08T17:20:40.818Z,95827.00
2022-11-08T17:23:09.074Z,95772.13
2022-11-08T17:25:38.244Z,95826.44
2022-11-08T17:28:07.014Z,95819.22
2022-11-08T17:30:37.054Z,95842.84
2022-11-08T17:33:05.135Z,95834.13
2022-11-08T17:35:32.992Z,95846.81
2022-11-08T17:38:00.836Z,95837.59
2022-11-08T17:40:28.678Z,95818.13
2022-11-08T17:42:56.516Z,95830.47
2022-11-08T17:45:24.362Z,95836.44
2022-11-08T17:47:53.675Z,95802.72
2022-11-08T17:50:21.495Z,95847.28
2022-11-08T17:52:49.327Z,95834.19
2022-11-08T17:55:17.536Z,95833.09
2022-11-08T17:57:45.358Z,95837.84
2022-11-08T18:00:14.575Z,95834.69
2022-11-08T18:02:42.477Z,95835.78
2022-11-08T18:05:11.786Z,95842.13
2022-11-08T18:07:40.097Z,95842.06
2022-11-08T18:10:09.331Z,95832.44
2022-11-08T18:12:37.743Z,95824.97
2022-11-08T18:15:07.242Z,95838.59
2022-11-08T18:17:35.056Z,95826.75
2022-11-08T18:20:02.944Z,95840.41
2022-11-08T18:22:32.825Z,95834.06
2022-11-08T18:25:00.635Z,95849.72
2022-11-08T18:27:28.758Z,95838.44
2022-11-08T18:29:56.606Z,95835.28
2022-11-08T18:32:24.500Z,95816.00
2022-11-08T18:34:52.357Z,95840.22
2022-11-08T18:37:20.749Z,95844.19
2022-11-08T18:39:49.920Z,95838.16
2022-11-08T18:42:17.732Z,95842.22
2022-11-08T18:44:45.609Z,95842.06
2022-11-08T18:47:13.479Z,95845.31
2022-11-08T18:49:41.346Z,95784.66
2022-11-08T18:52:09.379Z,95851.56
2022-11-08T18:54:37.291Z,95847.47
2022-11-08T18:57:06.469Z,95827.72
2022-11-08T18:59:34.465Z,95850.09
2022-11-08T19:02:03.283Z,95862.34
2022-11-08T19:04:31.178Z,95850.91
2022-11-08T19:06:59.106Z,95863.00
2022-11-08T19:09:26.954Z,95859.38
2022-11-08T19:11:54.862Z,95858.94
2022-11-08T19:14:24.230Z,95855.81
2022-11-08T19:16:55.943Z,95867.78
2022-11-08T19:19:24.533Z,95874.47
2022-11-08T19:21:52.357Z,95869.41
2022-11-08T19:24:20.322Z,95869.28
2022-11-08T19:26:48.179Z,95868.50
2022-11-08T19:29:16.079Z,95850.44
2022-11-08T19:31:45.489Z,95851.44
2022-11-08T19:34:13.822Z,95820.66
2022-11-08T19:36:43.581Z,95816.72
2022-11-08T19:39:12.507Z,95879.38
2022-11-08T19:41:41.888Z,95860.97
2022-11-08T19:44:10.795Z,95875.91
2022-11-08T19:46:40.538Z,95885.56
2022-11-08T19:49:11.167Z,95885.41
2022-11-08T19:51:39.103Z,95882.06
2022-11-08T19:54:08.754Z,95870.97
2022-11-08T19:57:03.026Z,95890.66
2022-11-08T19:59:25.954Z,95878.59
2022-11-08T20:01:54.158Z,95883.03
2022-11-08T20:04:23.367Z,95888.75
2022-11-08T20:06:51.212Z,95811.47
2022-11-08T20:09:19.227Z,95890.63
2022-11-08T20:11:47.054Z,95865.06
2022-11-08T20:14:15.269Z,95884.41
2022-11-08T20:16:47.833Z,95885.06
2022-11-08T20:19:18.955Z,95885.66
2022-11-08T20:21:48.248Z,95880.25
2022-11-08T20:24:16.748Z,95890.94
2022-11-08T20:26:45.402Z,95890.63
2022-11-08T20:29:14.772Z,95890.00
2022-11-08T20:31:42.800Z,95883.16
2022-11-08T20:34:12.780Z,95854.44
2022-11-08T20:36:41.773Z,95890.63
2022-11-08T20:39:12.135Z,95900.16
2022-11-08T20:41:41.073Z,95899.50
2022-11-08T20:44:10.662Z,95887.00
2022-11-08T20:46:39.282Z,95886.19
2022-11-08T20:49:07.658Z,95887.00
2022-11-08T20:51:36.182Z,95892.41
2022-11-08T20:54:04.610Z,95895.25
2022-11-08T20:56:37.437Z,95894.94
2022-11-08T20:59:05.654Z,95851.44
2022-11-08T21:01:34.471Z,95890.47
2022-11-08T21:04:02.923Z,95902.72
2022-11-08T21:06:35.944Z,95896.53
2022-11-08T21:09:30.110Z,95895.41
2022-11-08T21:11:54.832Z,95883.50
2022-11-08T21:14:23.836Z,95896.19
2022-11-08T21:17:21.276Z,95812.34
2022-11-08T21:19:39.916Z,95907.13
2022-11-08T21:22:16.729Z,95897.00
2022-11-08T21:24:47.690Z,95890.16
2022-11-08T21:27:17.542Z,95887.13
2022-11-08T21:29:45.343Z,95881.91
2022-11-08T21:32:13.257Z,95898.75
2022-11-08T21:34:45.636Z,95892.06
2022-11-08T21:37:14.280Z,95894.63
2022-11-08T21:39:42.176Z,95883.50
2022-11-08T21:42:10.032Z,95890.16
2022-11-08T21:44:39.279Z,95900.16
2022-11-08T21:47:07.136Z,95899.50
2022-11-08T21:49:35.006Z,95898.13
2022-11-08T21:52:03.683Z,95887.81
2022-11-08T21:54:31.593Z,95881.94
2022-11-08T21:56:59.439Z,95897.06
2022-11-08T21:59:27.427Z,95898.06
2022-11-08T22:01:56.678Z,95892.97
2022-11-08T22:04:24.537Z,95843.06
2022-11-08T22:06:52.484Z,95893.91
2022-11-08T22:09:20.479Z,95894.00
2022-11-08T22:11:48.352Z,95899.56
2022-11-08T22:14:16.321Z,95889.81
2022-11-08T22:16:44.176Z,95901.09
2022-11-08T22:19:13.926Z,95862.13
2022-11-08T22:21:44.488Z,95896.63
2022-11-08T22:24:13.857Z,95901.19
2022-11-08T22:26:42.568Z,95917.72
2022-11-08T22:29:10.516Z,95908.69
2022-11-08T22:31:39.102Z,95903.78
2022-11-08T22:34:08.574Z,95907.28
2022-11-08T22:36:44.480Z,95900.75
2022-11-08T22:39:13.945Z,95895.28
2022-11-08T22:41:41.968Z,95893.78
2022-11-08T22:44:12.455Z,95894.22
2022-11-08T22:46:41.420Z,95901.53
2022-11-08T22:49:09.639Z,95908.19
2022-11-08T22:51:39.469Z,95897.69
2022-11-08T22:54:08.104Z,95903.34
2022-11-08T22:56:36.923Z,95908.56
2022-11-08T22:59:05.207Z,95905.34
2022-11-08T23:01:33.174Z,95884.34
2022-11-08T23:04:01.199Z,95912.72
2022-11-08T23:06:29.141Z,95902.63
2022-11-08T23:08:58.591Z,95841.63
2022-11-08T23:11:43.736Z,95915.16
2022-11-08T23:14:35.453Z,95907.56
2022-11-08T23:17:05.120Z,95895.72
2022-11-08T23:19:50.931Z,95907.81
2022-11-08T23:22:36.934Z,95895.13
2022-11-08T23:25:07.249Z,95900.16
2022-11-08T23:27:52.588Z,95913.25
2022-11-08T23:30:38.058Z,95907.06
2022-11-08T23:33:06.805Z,95915.44
2022-11-08T23:35:34.985Z,95924.94
2022-11-08T23:38:03.002Z,95914.56
2022-11-08T23:40:49.763Z,95908.72
2022-11-08T23:43:36.605Z,95921.75
2022-11-08T23:46:08.841Z,95919.09
2022-11-08T23:48:37.398Z,95882.13
2022-11-08T23:51:06.008Z,95916.28
2022-11-08T23:53:36.739Z,95915.84
2022-11-08T23:56:07.355Z,95928.72
2022-11-08T23:58:35.474Z,95923.38
